Time;durP1;ratioP1;P1;durP2;ratioP2;P2;SDS_P1;SDS_P2;PMS_P1;PMS_P2;Temp;Humidity;BMP_temperature;BMP_pressure;BME280_temperature;BME280_humidity;BME280_pressure;Samples;Min_cycle;Max_cycle;Signal;HPM_P1;HPM_P2
2022/05/01 00:01:07;;;;;;;13.85;9.75;;;8.00;99.90;;;;;;4974154;28;20050;-63
2022/05/01 00:03:34;;;;;;;13.88;9.35;;;8.10;99.90;;;;;;4956608;28;20500;-63
2022/05/01 00:06:01;;;;;;;13.18;8.75;;;8.10;99.90;;;;;;4956850;28;20548;-63
2022/05/01 00:08:27;;;;;;;10.85;9.38;;;7.70;99.90;;;;;;4972612;28;20042;-63
2022/05/01 00:10:53;;;;;;;12.23;8.95;;;7.80;99.90;;;;;;4956552;28;20039;-63
2022/05/01 00:13:19;;;;;;;16.95;9.70;;;;;;;;;;4973086;28;20157;-63
2022/05/01 00:15:45;;;;;;;12.52;8.93;;;7.80;99.90;;;;;;4974144;28;20413;-64
2022/05/01 00:18:11;;;;;;;14.02;9.40;;;;;;;;;;4972867;28;20051;-64
2022/05/01 00:20:36;;;;;;;15.05;10.48;;;7.70;99.90;;;;;;4940653;28;20054;-63
2022/05/01 00:23:02;;;;;;;14.40;9.70;;;7.50;99.90;;;;;;4953604;28;20043;-63
2022/05/01 00:25:28;;;;;;;14.90;11.10;;;7.60;99.90;;;;;;4954122;28;20040;-63
2022/05/01 00:27:55;;;;;;;15.82;10.10;;;7.50;99.90;;;;;;4924356;29;20058;-63
2022/05/01 00:30:21;;;;;;;15.45;11.13;;;;;;;;;;4940351;29;20054;-63
2022/05/01 00:38:15;;;;;;;10.88;8.23;;;;;;;;;;4957815;29;20044;-63
2022/05/01 00:40:41;;;;;;;14.10;9.60;;;;;;;;;;4940759;29;20069;-63
2022/05/01 00:43:07;;;;;;;15.05;9.15;;;7.30;99.90;;;;;;4924160;29;20049;-63
2022/05/01 00:45:33;;;;;;;11.70;10.15;;;7.20;99.90;;;;;;4964001;28;20034;-63
2022/05/01 00:47:59;;;;;;;11.55;8.85;;;;;;;;;;4976759;28;20050;-63
2022/05/01 00:50:25;;;;;;;13.25;9.98;;;;;;;;;;4976551;28;20039;-63
2022/05/01 00:52:52;;;;;;;12.20;9.65;;;7.30;99.90;;;;;;4959405;28;20390;-63
2022/05/01 00:55:19;;;;;;;18.20;11.57;;;;;;;;;;4959095;28;20050;-63
2022/05/01 00:57:47;;;;;;;10.80;8.60;;;;;;;;;;4975707;28;20041;-62
2022/05/01 01:00:13;;;;;;;13.18;10.13;;;7.00;99.90;;;;;;4959610;28;20038;-63
2022/05/01 01:02:39;;;;;;;11.60;8.32;;;7.20;99.90;;;;;;4976729;28;20034;-63
2022/05/01 01:05:06;;;;;;;11.30;8.65;;;;;;;;;;4975715;28;20047;-63
2022/05/01 01:07:33;;;;;;;14.60;9.13;;;6.90;99.90;;;;;;4976891;28;20110;-63
2022/05/01 01:09:59;;;;;;;13.68;10.05;;;7.10;99.90;;;;;;4959244;28;20039;-63
2022/05/01 01:15:11;;;;;;;12.13;8.18;;;;;;;;;;4976515;28;20051;-63
2022/05/01 01:17:41;;;;;;;15.70;11.05;;;;;;;;;;4974794;28;20129;-63
2022/05/01 01:20:28;;;;;;;13.57;9.57;;;6.60;99.90;;;;;;4959271;28;20062;-63
2022/05/01 01:22:59;;;;;;;13.45;9.20;;;6.30;99.90;;;;;;4959450;28;20184;-63
2022/05/01 01:25:29;;;;;;;12.80;9.43;;;;;;;;;;4959432;28;20060;-63
2022/05/01 01:28:05;;;;;;;18.77;11.13;;;6.40;99.90;;;;;;4959189;28;20393;-63
2022/05/01 01:33:17;;;;;;;11.75;9.88;;;;;;;;;;4958980;28;20059;-65
2022/05/01 01:35:44;;;;;;;11.38;9.70;;;;;;;;;;4974791;28;20047;-63
2022/05/01 01:38:10;;;;;;;14.65;9.57;;;6.10;99.90;;;;;;4975903;28;20035;-63
2022/05/01 01:40:38;;;;;;;13.52;9.32;;;;;;;;;;4942765;28;20050;-63
2022/05/01 01:43:05;;;;;;;9.32;7.75;;;;;;;;;;4958627;28;20501;-63
2022/05/01 01:45:31;;;;;;;12.77;9.35;;;;;;;;;;4975994;28;20039;-63
2022/05/01 01:48:10;;;;;;;11.20;7.75;;;6.10;99.90;;;;;;4958633;28;20035;-63
2022/05/01 01:50:36;;;;;;;9.30;7.43;;;;;;;;;;4974538;28;20047;-63
2022/05/01 01:53:01;;;;;;;10.75;7.07;;;6.00;99.90;;;;;;4958003;28;20151;-63
2022/05/01 01:55:27;;;;;;;7.03;6.18;;;;;;;;;;4975645;28;20081;-63
2022/05/01 01:57:53;;;;;;;6.65;5.93;;;;;;;;;;4958321;28;20038;-63
2022/05/01 02:00:19;;;;;;;5.93;5.32;;;5.80;99.90;;;;;;4975696;28;20041;-63
2022/05/01 02:02:45;;;;;;;8.85;6.75;;;;;;;;;;4975757;28;20105;-63
2022/05/01 02:05:11;;;;;;;7.70;6.43;;;;;;;;;;4958071;28;20038;-63
2022/05/01 02:07:37;;;;;;;10.25;6.88;;;;;;;;;;4958209;28;20101;-63
2022/05/01 02:10:03;;;;;;;10.23;6.32;;;5.60;99.90;;;;;;4957961;28;20077;-63
2022/05/01 02:12:29;;;;;;;9.05;7.68;;;;;;;;;;4974933;28;20129;-63
2022/05/01 02:14:55;;;;;;;7.75;5.72;;;5.40;99.90;;;;;;4975138;28;20035;-63
2022/05/01 02:17:21;;;;;;;9.52;5.43;;;;;;;;;;4973954;28;20409;-63
2022/05/01 02:19:47;;;;;;;5.15;4.45;;;;;;;;;;4975122;28;20185;-63
2022/05/01 02:22:15;;;;;;;5.80;4.78;;;5.10;99.90;;;;;;4957610;28;20113;-63
2022/05/01 02:24:41;;;;;;;7.07;5.72;;;;;;;;;;4974104;28;20062;-63
2022/05/01 02:27:07;;;;;;;10.45;8.65;;;;;;;;;;4974720;28;20517;-62
2022/05/01 02:29:33;;;;;;;8.07;6.53;;;;;;;;;;4975282;28;20517;-63
2022/05/01 02:31:59;;;;;;;6.45;5.70;;;;;;;;;;4973963;28;20038;-63
2022/05/01 02:34:25;;;;;;;6.47;5.28;;;4.90;99.90;;;;;;4974983;28;20154;-63
2022/05/01 02:36:51;;;;;;;7.85;6.72;;;;;;;;;;4973595;28;20408;-63
2022/05/01 02:39:17;;;;;;;7.63;4.10;;;;;;;;;;4957475;28;20110;-63
2022/05/01 02:41:43;;;;;;;153.48;8.40;;;;;;;;;;4974909;28;20043;-63
2022/05/01 02:44:10;;;;;;;14.35;3.50;;;;;;;;;;4974409;28;20046;-62
2022/05/01 02:46:36;;;;;;;3.75;3.13;;;4.60;99.90;;;;;;4973403;28;20113;-63
2022/05/01 02:49:04;;;;;;;4.72;4.20;;;;;;;;;;4955727;28;20123;-63
2022/05/01 02:51:31;;;;;;;5.88;5.00;;;4.50;99.90;;;;;;4974670;28;20047;-62
2022/05/01 02:53:57;;;;;;;6.68;5.05;;;;;;;;;;4941055;28;20078;-63
2022/05/01 02:56:23;;;;;;;3.50;3.20;;;;;;;;;;4957343;28;20051;-63
2022/05/01 02:58:49;;;;;;;13.48;3.40;;;4.60;99.90;;;;;;4974536;28;20042;-63
2022/05/01 03:01:15;;;;;;;8.25;4.93;;;;;;;;;;4974661;28;20065;-63
2022/05/01 03:03:41;;;;;;;70.40;7.00;;;4.30;99.90;;;;;;4956914;28;20492;-62
2022/05/01 03:06:07;;;;;;;17.75;5.32;;;;;;;;;;4973246;28;20126;-63
2022/05/01 03:08:33;;;;;;;12.45;6.10;;;4.00;99.90;;;;;;4974563;28;20121;-63
2022/05/01 03:10:58;;;;;;;5.80;4.63;;;3.80;99.90;;;;;;4972961;28;20102;-62
2022/05/01 03:13:24;;;;;;;11.88;6.60;;;;;;;;;;4973161;28;20047;-63
2022/05/01 03:15:50;;;;;;;6.35;5.40;;;;;;;;;;4973890;28;20050;-63
2022/05/01 03:23:46;;;;;;;46.65;7.32;;;;;;;;;;4974131;28;20122;-63
2022/05/01 03:26:12;;;;;;;8.93;6.15;;;;;;;;;;4957117;28;20035;-63
2022/05/01 03:28:39;;;;;;;7.30;6.07;;;;;;;;;;4957022;28;20047;-63
2022/05/01 03:31:09;;;;;;;5.93;5.20;;;;;;;;;;4972936;28;20051;-63
2022/05/01 03:33:36;;;;;;;26.17;5.50;;;;;;;;;;4973772;28;20046;-62
2022/05/01 03:36:05;;;;;;;10.98;4.93;;;3.80;99.90;;;;;;4956476;28;20094;-63
2022/05/01 03:38:31;;;;;;;13.32;7.05;;;;;;;;;;4974413;28;20042;-63
2022/05/01 03:40:57;;;;;;;3.78;3.47;;;;;;;;;;4956819;28;20075;-63
2022/05/01 03:43:23;;;;;;;4.90;4.43;;;;;;;;;;4972791;28;20046;-63
2022/05/01 03:45:49;;;;;;;6.70;5.90;;;;;;;;;;4974182;28;20441;-62
2022/05/01 03:48:15;;;;;;;7.03;6.10;;;;;;;;;;4956669;28;20071;-63
2022/05/01 03:50:41;;;;;;;6.85;5.90;;;3.60;99.90;;;;;;4956570;28;20042;-62
2022/05/01 03:53:07;;;;;;;10.07;7.32;;;;;;;;;;4973935;28;20039;-63
2022/05/01 03:55:34;;;;;;;10.23;7.68;;;3.60;99.90;;;;;;4956663;28;20039;-62
2022/05/01 03:58:00;;;;;;;9.18;6.82;;;3.50;99.90;;;;;;4956593;28;20072;-63
2022/05/01 04:00:27;;;;;;;8.90;6.93;;;3.40;99.90;;;;;;4973641;28;20378;-63
2022/05/01 04:02:54;;;;;;;9.25;7.68;;;;;;;;;;4960307;28;20396;-63
2022/05/01 04:05:20;;;;;;;9.93;7.03;;;;;;;;;;4976899;28;20035;-63
2022/05/01 04:07:46;;;;;;;13.02;7.93;;;;;;;;;;4960410;28;20042;-63
2022/05/01 04:10:12;;;;;;;10.82;6.60;;;;;;;;;;4977469;28;20046;-63
2022/05/01 04:12:38;;;;;;;8.07;6.32;;;;;;;;;;4977101;28;20150;-63
2022/05/01 04:15:07;;;;;;;10.27;7.32;;;3.70;99.90;;;;;;4977687;28;20070;-63
2022/05/01 04:17:38;;;;;;;8.98;6.55;;;3.70;99.90;;;;;;4975925;28;20158;-62
2022/05/01 04:20:06;;;;;;;8.20;6.95;;;;;;;;;;4976129;28;20177;-63
2022/05/01 04:22:36;;;;;;;10.55;7.10;;;;;;;;;;4975605;28;20062;-63
2022/05/01 04:25:03;;;;;;;9.10;7.72;;;;;;;;;;4959787;28;20050;-63
2022/05/01 04:27:29;;;;;;;9.73;7.57;;;;;;;;;;4975973;28;20051;-63
2022/05/01 04:29:55;;;;;;;11.60;9.02;;;;;;;;;;4976855;28;20489;-62
2022/05/01 04:32:21;;;;;;;10.40;8.23;;;3.50;99.90;;;;;;4976860;28;20050;-63
2022/05/01 04:34:47;;;;;;;11.25;8.55;;;;;;;;;;4973526;28;20073;-62
2022/05/01 04:37:13;;;;;;;8.52;6.55;;;3.50;99.90;;;;;;4975580;28;20122;-63
2022/05/01 04:39:39;;;;;;;8.73;7.05;;;;;;;;;;4975982;28;20046;-63
2022/05/01 04:42:05;;;;;;;10.93;7.07;;;3.30;99.90;;;;;;4960735;28;20039;-63
2022/05/01 04:44:30;;;;;;;9.38;7.03;;;3.20;99.90;;;;;;4970524;28;20027;-63
2022/05/01 04:46:56;;;;;;;7.25;6.35;;;3.20;99.90;;;;;;4958151;28;20042;-63
2022/05/01 04:49:22;;;;;;;8.07;6.72;;;3.10;99.90;;;;;;4975393;28;20046;-63
2022/05/01 04:51:48;;;;;;;10.32;7.10;;;3.20;99.90;;;;;;4976655;28;20051;-63
2022/05/01 04:54:13;;;;;;;9.93;7.07;;;3.40;99.90;;;;;;4963746;28;20039;-63
2022/05/01 04:59:23;;;;;;;9.60;7.10;;;3.40;99.90;;;;;;4954484;28;20078;-63
2022/05/01 05:01:48;;;;;;;8.43;6.45;;;3.50;99.90;;;;;;4955565;28;20434;-63
2022/05/01 05:04:14;;;;;;;9.60;6.20;;;3.40;99.90;;;;;;4952886;28;20050;-63
2022/05/01 05:06:39;;;;;;;14.35;8.00;;;3.20;99.90;;;;;;4975335;28;20386;-63
2022/05/01 05:11:49;;;;;;;9.35;6.43;;;3.20;99.90;;;;;;4957835;28;20055;-63
2022/05/01 05:14:15;;;;;;;7.60;6.35;;;3.10;99.90;;;;;;4976367;28;20046;-63
2022/05/01 05:16:41;;;;;;;12.35;7.80;;;3.20;99.90;;;;;;4958985;28;20047;-63
2022/05/01 05:19:07;;;;;;;12.38;7.43;;;;;;;;;;4958807;28;20082;-63
2022/05/01 05:21:33;;;;;;;7.65;6.72;;;3.40;99.90;;;;;;4958747;28;20058;-63
2022/05/01 05:23:58;;;;;;;8.73;7.10;;;3.30;99.90;;;;;;4975913;28;20398;-63
2022/05/01 05:26:24;;;;;;;10.93;8.90;;;;;;;;;;4975072;28;20064;-63
2022/05/01 05:28:50;;;;;;;10.15;8.15;;;3.60;99.90;;;;;;4976163;28;20121;-63
2022/05/01 05:31:15;;;;;;;8.05;6.57;;;3.70;99.90;;;;;;4958304;28;20047;-63
2022/05/01 05:33:41;;;;;;;7.18;6.47;;;;;;;;;;4975461;28;20055;-62
2022/05/01 05:36:07;;;;;;;9.05;7.47;;;3.90;99.90;;;;;;4972094;28;20446;-62
2022/05/01 05:38:33;;;;;;;9.35;7.40;;;4.30;99.90;;;;;;4954481;28;20049;-62
2022/05/01 05:40:59;;;;;;;9.55;7.55;;;;;;;;;;4971013;28;20046;-63
2022/05/01 05:43:25;;;;;;;10.35;8.27;;;;;;;;;;4952440;28;20039;-62
2022/05/01 05:45:51;;;;;;;9.13;7.95;;;;;;;;;;4931853;28;20077;-62
2022/05/01 05:48:17;;;;;;;8.80;7.72;;;;;;;;;;4944119;28;20050;-61
2022/05/01 05:50:43;;;;;;;9.38;7.30;;;;;;;;;;4944073;28;20047;-62
2022/05/01 05:53:09;;;;;;;9.25;8.30;;;;;;;;;;4943886;28;20046;-63
2022/05/01 05:55:35;;;;;;;9.80;8.05;;;;;;;;;;4945705;28;20039;-63
2022/05/01 05:58:01;;;;;;;11.35;8.55;;;;;;;;;;4946037;29;20150;-63
2022/05/01 06:00:27;;;;;;;10.50;8.23;;;;;;;;;;4947740;29;20122;-62
2022/05/01 06:02:53;;;;;;;11.02;8.10;;;;;;;;;;4946379;28;20047;-62
2022/05/01 06:05:19;;;;;;;10.60;8.30;;;;;;;;;;4945232;28;20043;-63
2022/05/01 06:07:45;;;;;;;11.48;8.85;;;;;;;;;;4946637;28;20054;-63
2022/05/01 06:10:11;;;;;;;10.50;8.25;;;;;;;;;;4947092;28;20039;-63
2022/05/01 06:12:44;;;;;;;12.70;9.18;;;;;;;;;;4963945;28;20138;-62
2022/05/01 06:15:10;;;;;;;14.60;10.77;;;7.80;99.90;;;;;;4941223;29;20105;-63
2022/05/01 06:17:37;;;;;;;14.48;11.18;;;8.90;99.90;;;;;;4947439;29;20062;-63
2022/05/01 06:20:03;;;;;;;13.10;9.82;;;;;;;;;;4947274;29;20050;-63
2022/05/01 06:22:30;;;;;;;14.00;10.00;;;;;;;;;;4947246;28;20050;-63
2022/05/01 06:24:56;;;;;;;12.70;11.00;;;;;;;;;;4946799;28;20439;-62
2022/05/01 06:27:22;;;;;;;13.90;9.85;;;;;;;;;;4931121;28;20047;-63
2022/05/01 06:29:48;;;;;;;11.75;9.07;;;;;;;;;;4954497;28;20039;-63
2022/05/01 06:32:19;;;;;;;12.05;9.52;;;10.20;99.90;;;;;;4956606;28;20497;-62
2022/05/01 06:34:46;;;;;;;11.82;9.60;;;10.40;99.90;;;;;;4966508;28;20047;-62
2022/05/01 06:37:12;;;;;;;16.30;9.70;;;;;;;;;;4948836;28;20373;-62
2022/05/01 06:39:39;;;;;;;11.07;9.40;;;;;;;;;;4965975;28;20043;-63
2022/05/01 06:42:05;;;;;;;15.18;9.10;;;11.10;99.90;;;;;;4951032;28;20047;-63
2022/05/01 06:44:31;;;;;;;13.93;9.02;;;;;;;;;;4948246;28;20043;-61
2022/05/01 06:46:57;;;;;;;10.38;8.00;;;;;;;;;;4957884;28;20046;-63
2022/05/01 06:49:23;;;;;;;11.10;8.45;;;11.50;99.90;;;;;;4960343;28;20041;-62
2022/05/01 06:51:49;;;;;;;11.70;8.90;;;;;;;;;;4945538;28;20101;-63
2022/05/01 06:54:14;;;;;;;9.90;8.52;;;11.70;99.90;;;;;;4946742;28;20051;-63
2022/05/01 06:56:44;;;;;;;10.50;8.32;;;;;;;;;;4953184;28;20049;-63
2022/05/01 06:59:10;;;;;;;11.60;8.10;;;11.60;99.90;;;;;;4966542;28;20043;-63
2022/05/01 07:01:36;;;;;;;10.40;7.65;;;;;;;;;;4968157;28;20039;-62
2022/05/01 07:04:02;;;;;;;10.10;7.20;;;11.60;99.90;;;;;;4969412;28;20033;-64
2022/05/01 07:06:27;;;;;;;11.93;7.07;;;11.50;99.90;;;;;;4972286;28;20545;-63
2022/05/01 07:08:53;;;;;;;9.18;8.10;;;11.70;99.90;;;;;;4972042;28;20043;-62
2022/05/01 07:11:19;;;;;;;10.05;7.78;;;;;;;;;;4969050;28;20038;-64
2022/05/01 07:13:44;;;;;;;10.65;7.30;;;11.60;99.90;;;;;;4965072;28;20046;-62
2022/05/01 07:16:10;;;;;;;9.65;8.65;;;11.70;99.90;;;;;;4951900;28;20045;-63
2022/05/01 07:18:36;;;;;;;11.70;8.75;;;;;;;;;;4968556;28;20089;-63
2022/05/01 07:21:02;;;;;;;11.43;8.07;;;;;;;;;;4967517;28;20051;-63
2022/05/01 07:23:30;;;;;;;9.77;6.90;;;;;;;;;;4969142;28;20122;-63
2022/05/01 07:25:56;;;;;;;10.90;6.82;;;;;;;;;;4967359;28;20038;-63
2022/05/01 07:28:22;;;;;;;10.18;6.70;;;;;;;;;;4969163;28;20547;-63
2022/05/01 07:30:48;;;;;;;9.45;6.28;;;11.80;99.90;;;;;;4968835;28;20101;-63
2022/05/01 07:33:14;;;;;;;9.73;6.15;;;;;;;;;;4951013;28;20050;-64
2022/05/01 07:35:40;;;;;;;9.70;6.63;;;;;;;;;;4964489;28;20063;-65
2022/05/01 07:38:05;;;;;;;9.57;5.88;;;11.80;99.90;;;;;;4948577;28;20043;-64
2022/05/01 07:40:31;;;;;;;8.40;5.60;;;;;;;;;;4968331;28;20049;-65
2022/05/01 07:42:58;;;;;;;11.98;6.60;;;;;;;;;;4966455;28;20535;-63
2022/05/01 07:45:24;;;;;;;8.13;5.47;;;;;;;;;;4965671;28;20046;-63
2022/05/01 07:47:50;;;;;;;7.47;6.43;;;;;;;;;;4932849;28;20523;-63
2022/05/01 07:50:17;;;;;;;9.40;6.28;;;;;;;;;;4964365;28;20101;-64
2022/05/01 07:52:43;;;;;;;11.85;6.38;;;;;;;;;;4936032;28;20046;-63
2022/05/01 07:55:09;;;;;;;7.93;5.93;;;;;;;;;;4969201;28;20050;-63
2022/05/01 07:57:35;;;;;;;7.88;6.30;;;;;;;;;;4971104;28;20055;-64
2022/05/01 08:00:02;;;;;;;6.93;5.20;;;;;;;;;;4971009;28;20412;-63
2022/05/01 08:04:27;;;;;;;7.30;4.75;;;12.00;99.90;;;;;;4969935;28;20429;-63
2022/05/01 08:05:23;;;;;;;7.38;4.80;;;;;;;;;;4953842;28;20042;-64
2022/05/01 08:07:49;;;;;;;5.10;3.88;;;;;;;;;;4970262;28;20085;-63
2022/05/01 08:10:15;;;;;;;10.15;6.05;;;;;;;;;;4963432;28;20164;-64
2022/05/01 08:12:41;;;;;;;7.85;6.13;;;;;;;;;;4959578;28;20043;-64
2022/05/01 08:21:35;;;;;;;7.60;5.70;;;;;;;;;;4952992;28;20051;-63
2022/05/01 08:24:02;;;;;;;5.85;4.88;;;;;;;;;;4974127;28;20041;-63
2022/05/01 08:26:31;;;;;;;7.57;5.68;;;12.10;99.90;;;;;;4973887;28;20096;-63
2022/05/01 08:28:57;;;;;;;6.25;5.50;;;;;;;;;;4958041;28;20114;-62
2022/05/01 08:31:22;;;;;;;8.85;5.47;;;12.20;99.90;;;;;;4964843;28;20539;-62
2022/05/01 08:33:48;;;;;;;9.77;6.00;;;;;;;;;;4972905;28;20061;-63
2022/05/01 08:36:14;;;;;;;7.20;6.25;;;12.30;99.90;;;;;;4951958;28;20051;-63
2022/05/01 08:38:40;;;;;;;8.07;5.40;;;12.40;99.90;;;;;;4957623;29;20049;-64
2022/05/01 08:41:07;;;;;;;7.50;5.45;;;12.60;99.90;;;;;;4939740;28;20035;-64
2022/05/01 08:43:34;;;;;;;6.88;5.60;;;12.60;99.90;;;;;;4967037;28;20050;-63
2022/05/01 08:46:37;;;;;;;10.30;5.57;;;12.50;99.90;;;;;;4959498;28;20390;-62
2022/05/01 08:49:05;;;;;;;6.28;4.65;;;13.00;99.90;;;;;;4958653;28;20118;-62
2022/05/01 08:51:35;;;;;;;14.23;5.20;;;13.00;99.90;;;;;;4976209;28;20125;-62
2022/05/01 08:54:08;;;;;;;8.85;6.05;;;12.90;99.90;;;;;;4976806;28;20405;-62
2022/05/01 08:56:35;;;;;;;7.70;5.78;;;13.00;99.90;;;;;;4976499;28;20524;-62
2022/05/01 08:59:07;;;;;;;6.47;5.10;;;12.90;99.90;;;;;;4959576;28;20054;-62
2022/05/01 09:01:33;;;;;;;6.57;4.55;;;13.10;99.90;;;;;;4976545;28;20050;-62
2022/05/01 09:04:00;;;;;;;6.53;4.15;;;13.40;99.90;;;;;;4959356;28;20053;-62
2022/05/01 09:06:27;;;;;;;6.18;4.28;;;13.20;99.90;;;;;;4974000;28;20402;-62
2022/05/01 09:08:52;;;;;;;5.45;3.95;;;13.40;99.90;;;;;;4975136;28;20039;-63
2022/05/01 09:14:03;;;;;;;7.05;4.10;;;13.50;99.90;;;;;;4959026;28;20054;-62
2022/05/01 09:16:29;;;;;;;6.25;4.57;;;13.70;99.90;;;;;;4976481;28;20112;-62
2022/05/01 09:18:54;;;;;;;7.30;4.70;;;13.10;99.90;;;;;;4976383;28;20097;-62
2022/05/01 09:21:20;;;;;;;5.63;4.85;;;13.00;99.90;;;;;;4974865;28;20105;-62
2022/05/01 09:23:47;;;;;;;6.93;4.78;;;13.00;99.90;;;;;;4974703;28;20065;-63
2022/05/01 09:26:14;;;;;;;5.38;4.50;;;13.00;99.90;;;;;;4959066;28;20038;-62
2022/05/01 09:28:49;;;;;;;5.35;4.25;;;12.80;99.90;;;;;;4976168;28;20043;-62
2022/05/01 09:31:15;;;;;;;9.15;4.40;;;12.90;99.90;;;;;;4976081;28;20047;-63
2022/05/01 09:33:41;;;;;;;6.75;4.50;;;12.80;99.90;;;;;;4974514;28;20086;-63
2022/05/01 09:36:08;;;;;;;6.38;4.82;;;13.10;99.90;;;;;;4974554;28;20525;-62
2022/05/01 09:38:34;;;;;;;4.93;3.83;;;13.20;99.90;;;;;;4975936;28;20085;-62
2022/05/01 09:41:02;;;;;;;6.03;4.03;;;13.20;99.90;;;;;;4975535;28;20466;-62
2022/05/01 09:43:36;;;;;;;5.88;4.50;;;13.20;99.90;;;;;;4975719;28;20383;-62
2022/05/01 09:46:17;;;;;;;6.72;4.70;;;13.20;99.90;;;;;;4974482;28;20049;-62
2022/05/01 09:48:59;;;;;;;4.85;4.20;;;13.20;99.90;;;;;;4974530;28;20564;-62
2022/05/01 09:51:29;;;;;;;5.47;4.63;;;13.20;99.90;;;;;;4975709;28;20043;-62
2022/05/01 09:53:56;;;;;;;5.63;4.50;;;13.20;99.90;;;;;;4975788;28;20054;-62
2022/05/01 09:56:22;;;;;;;7.20;4.18;;;13.00;99.90;;;;;;4975514;28;20517;-62
2022/05/01 09:59:01;;;;;;;4.22;3.55;;;13.40;99.90;;;;;;4974157;28;20086;-63
2022/05/01 10:01:30;;;;;;;6.95;4.05;;;13.10;99.90;;;;;;4975449;28;20098;-62
2022/05/01 10:04:01;;;;;;;9.70;5.07;;;13.00;99.90;;;;;;4975272;28;20404;-62
2022/05/01 10:06:29;;;;;;;5.85;4.22;;;12.80;99.90;;;;;;4974472;28;20047;-62
2022/05/01 10:08:56;;;;;;;9.40;4.95;;;12.80;99.90;;;;;;4975374;28;20057;-62
2022/05/01 10:11:24;;;;;;;5.78;4.35;;;12.80;99.90;;;;;;4975390;28;20042;-62
2022/05/01 10:13:51;;;;;;;5.20;3.97;;;12.90;99.90;;;;;;4974193;28;20054;-62
2022/05/01 10:16:17;;;;;;;4.90;3.60;;;12.70;99.90;;;;;;4975047;28;20067;-62
2022/05/01 10:18:44;;;;;;;8.50;4.13;;;12.90;99.90;;;;;;4973935;28;20122;-62
2022/05/01 10:21:11;;;;;;;7.35;4.03;;;13.00;99.90;;;;;;4975178;28;20424;-62
2022/05/01 10:23:37;;;;;;;5.35;3.58;;;13.20;99.90;;;;;;4973748;28;20074;-63
2022/05/01 10:26:12;;;;;;;5.55;3.50;;;13.10;99.90;;;;;;4975064;28;20457;-63
2022/05/01 10:28:50;;;;;;;5.47;3.33;;;13.10;99.90;;;;;;4973928;28;20049;-62
2022/05/01 10:34:59;;;;;;;7.00;3.90;;;13.30;99.90;;;;;;4973488;28;20084;-62
2022/05/01 10:37:47;;;;;;;6.70;3.55;;;13.50;99.90;;;;;;4973572;28;20047;-62
2022/05/01 10:40:13;;;;;;;10.80;3.65;;;13.50;99.90;;;;;;4974874;28;20047;-62
2022/05/01 10:42:45;;;;;;;4.80;3.60;;;13.40;99.90;;;;;;4974547;28;20043;-62
2022/05/01 10:45:23;;;;;;;3.88;2.85;;;13.80;99.90;;;;;;4974612;28;20121;-62
2022/05/01 10:47:53;;;;;;;5.82;3.25;;;14.00;99.90;;;;;;4973709;28;20367;-63
2022/05/01 10:50:27;;;;;;;4.78;2.80;;;14.00;99.90;;;;;;4974827;28;20049;-62
2022/05/01 10:53:12;;;;;;;4.60;2.80;;;14.10;99.90;;;;;;4974648;28;20074;-63
2022/05/01 10:55:51;;;;;;;3.63;3.15;;;14.10;99.90;;;;;;4974630;28;20046;-62
2022/05/01 10:58:26;;;;;;;5.20;2.75;;;14.10;99.90;;;;;;4974391;28;20108;-62
2022/05/01 11:00:53;;;;;;;2.95;2.45;;;14.10;99.90;;;;;;4974387;28;20166;-62
2022/05/01 11:03:36;;;;;;;3.28;2.38;;;14.20;99.90;;;;;;4974488;28;20363;-62
2022/05/01 11:06:01;;;;;;;6.72;2.17;;;14.30;99.90;;;;;;4974500;28;20043;-62
2022/05/01 11:08:31;;;;;;;6.03;2.60;;;14.40;99.90;;;;;;4973385;28;20069;-63
2022/05/01 11:10:59;;;;;;;3.25;2.67;;;14.40;99.90;;;;;;4972632;28;20497;-63
2022/05/01 11:13:40;;;;;;;3.38;2.40;;;14.60;99.90;;;;;;4974256;28;20397;-63
2022/05/01 11:16:07;;;;;;;5.53;2.83;;;14.70;99.90;;;;;;4974425;28;20042;-63
2022/05/01 11:18:54;;;;;;;5.82;2.92;;;14.90;99.90;;;;;;4973301;28;20512;-63
2022/05/01 11:21:19;;;;;;;4.32;3.03;;;14.70;99.90;;;;;;4956714;28;20059;-63
2022/05/01 11:23:45;;;;;;;4.05;2.95;;;14.70;99.90;;;;;;4957026;28;20050;-63
2022/05/01 11:26:13;;;;;;;5.07;3.35;;;14.80;99.90;;;;;;4974194;28;20117;-62
2022/05/01 11:28:44;;;;;;;4.13;3.33;;;14.60;99.90;;;;;;4974182;28;20111;-62
2022/05/01 11:31:35;;;;;;;7.80;5.30;;;14.60;99.90;;;;;;4972930;28;20051;-62
2022/05/01 11:34:16;;;;;;;5.63;3.58;;;14.50;99.90;;;;;;4972949;28;20081;-63
2022/05/01 11:36:53;;;;;;;8.27;4.50;;;14.60;99.90;;;;;;4972951;28;20402;-62
2022/05/01 11:39:19;;;;;;;4.25;2.83;;;14.70;99.90;;;;;;4974118;28;20035;-62
2022/05/01 11:41:47;;;;;;;6.95;3.42;;;14.20;99.90;;;;;;4972740;28;20046;-63
2022/05/01 11:44:20;;;;;;;5.63;3.03;;;14.20;99.90;;;;;;4972760;28;20070;-63
2022/05/01 11:46:47;;;;;;;5.93;3.40;;;14.20;99.90;;;;;;4973947;28;20038;-63
2022/05/01 11:49:13;;;;;;;6.93;3.13;;;14.10;99.90;;;;;;4974147;28;20042;-63
2022/05/01 11:51:39;;;;;;;5.95;3.28;;;14.30;99.90;;;;;;4972739;28;20382;-63
2022/05/01 11:54:05;;;;;;;6.82;3.40;;;;;;;;;;4972687;28;20053;-63
2022/05/01 12:04:45;;;;;;;3.90;2.97;;;13.90;99.90;;;;;;4973842;28;20051;-63
2022/05/01 12:07:12;;;;;;;3.70;3.15;;;13.70;99.90;;;;;;4974081;28;20556;-63
2022/05/01 12:09:39;;;;;;;3.67;3.08;;;13.90;99.90;;;;;;4973994;28;20047;-63
2022/05/01 12:12:08;;;;;;;5.30;3.25;;;14.00;99.90;;;;;;4972583;28;20077;-62
2022/05/01 12:14:33;;;;;;;4.50;3.22;;;14.10;99.90;;;;;;4973795;28;20092;-63
2022/05/01 12:16:59;;;;;;;3.28;2.65;;;14.20;99.90;;;;;;4973777;28;20503;-63
2022/05/01 12:19:39;;;;;;;3.70;3.05;;;14.00;99.90;;;;;;4973759;28;20046;-62
2022/05/01 12:22:06;;;;;;;4.57;3.10;;;13.80;99.90;;;;;;4975507;28;20490;-63
2022/05/01 12:24:33;;;;;;;4.35;3.13;;;14.00;99.90;;;;;;4977344;28;20039;-63
2022/05/01 12:26:59;;;;;;;5.25;3.05;;;14.10;99.90;;;;;;4977117;28;20034;-63
2022/05/01 12:29:24;;;;;;;3.72;2.60;;;14.10;99.90;;;;;;4977211;28;20162;-63
2022/05/01 12:32:01;;;;;;;5.85;3.15;;;14.20;99.90;;;;;;4976180;28;20130;-63
2022/05/01 12:34:28;;;;;;;6.05;3.15;;;14.30;99.90;;;;;;4976876;28;20066;-63
2022/05/01 12:36:58;;;;;;;4.88;3.60;;;14.40;99.90;;;;;;4977095;28;20050;-63
2022/05/01 12:39:25;;;;;;;4.32;3.13;;;14.40;99.90;;;;;;4976937;28;20559;-63
2022/05/01 12:45:16;;;;;;;3.33;2.92;;;14.60;99.90;;;;;;4976764;28;20055;-63
2022/05/01 12:47:50;;;;;;;4.30;3.10;;;14.80;99.90;;;;;;4976926;28;20090;-63
2022/05/01 12:50:18;;;;;;;7.18;3.63;;;14.80;99.90;;;;;;4976908;28;20039;-63
2022/05/01 12:52:53;;;;;;;6.03;2.97;;;14.50;99.90;;;;;;4975491;28;20129;-63
2022/05/01 12:55:21;;;;;;;8.57;3.75;;;14.90;99.90;;;;;;4976971;28;20057;-62
2022/05/01 12:57:57;;;;;;;5.97;3.50;;;14.90;99.90;;;;;;4976755;28;20081;-62
2022/05/01 13:00:30;;;;;;;7.80;4.30;;;15.00;99.90;;;;;;4975198;28;20503;-63
2022/05/01 13:03:21;;;;;;;7.68;3.92;;;14.90;99.90;;;;;;4976510;28;20043;-63
2022/05/01 13:05:58;;;;;;;4.75;3.45;;;15.20;99.90;;;;;;4976536;28;20039;-63
2022/05/01 13:08:25;;;;;;;3.90;3.13;;;15.20;99.90;;;;;;4976627;28;20117;-63
2022/05/01 13:11:09;;;;;;;5.35;3.75;;;14.90;99.90;;;;;;4975166;28;20452;-63
2022/05/01 13:13:45;;;;;;;5.30;3.30;;;14.80;99.90;;;;;;4976409;28;20122;-63
2022/05/01 13:16:11;;;;;;;5.35;2.85;;;14.90;99.90;;;;;;4959116;28;20097;-62
2022/05/01 13:18:37;;;;;;;5.97;3.22;;;14.80;99.90;;;;;;4976470;28;20397;-62
2022/05/01 13:21:03;;;;;;;3.83;3.20;;;;;;;;;;4976196;28;20072;-62
2022/05/01 13:23:28;;;;;;;4.65;3.65;;;14.40;99.90;;;;;;4958787;28;20405;-63
2022/05/01 13:25:54;;;;;;;7.05;3.28;;;14.50;99.90;;;;;;4976193;28;20118;-62
2022/05/01 13:28:21;;;;;;;5.18;3.00;;;14.40;99.90;;;;;;4974805;28;20047;-62
2022/05/01 13:30:46;;;;;;;3.75;3.10;;;14.70;99.90;;;;;;4975969;28;20370;-63
2022/05/01 13:33:12;;;;;;;4.03;2.85;;;14.60;99.90;;;;;;4974224;28;20104;-63
2022/05/01 13:35:38;;;;;;;7.55;3.30;;;14.30;99.90;;;;;;4974600;28;20054;-62
2022/05/01 13:38:03;;;;;;;3.80;3.22;;;14.50;99.90;;;;;;4976164;28;20061;-63
2022/05/01 13:45:58;;;;;;;6.13;3.22;;;15.00;99.90;;;;;;4975710;28;20505;-63
2022/05/01 13:48:24;;;;;;;5.78;2.70;;;15.10;99.90;;;;;;4975798;28;20031;-63
2022/05/01 13:50:49;;;;;;;4.78;2.85;;;15.10;99.90;;;;;;4974733;28;20042;-63
2022/05/01 13:53:16;;;;;;;3.72;3.05;;;15.10;99.90;;;;;;4974576;28;20035;-63
2022/05/01 13:55:42;;;;;;;2.92;2.50;;;15.40;99.90;;;;;;4974290;28;20066;-63
2022/05/01 13:58:07;;;;;;;6.72;2.97;;;15.30;99.90;;;;;;4974230;28;20050;-63
2022/05/01 14:00:33;;;;;;;3.15;2.47;;;15.30;99.90;;;;;;4975674;28;20066;-63
2022/05/01 14:03:00;;;;;;;5.32;3.30;;;15.30;99.90;;;;;;4974027;28;20559;-63
2022/05/01 14:05:26;;;;;;;3.53;2.53;;;15.50;99.90;;;;;;4975288;28;20485;-63
2022/05/01 14:07:52;;;;;;;8.07;2.90;;;15.30;99.90;;;;;;4974400;28;20386;-63
2022/05/01 14:10:17;;;;;;;4.38;2.92;;;15.30;99.90;;;;;;4975194;28;20053;-63
2022/05/01 14:12:46;;;;;;;3.22;2.92;;;15.30;99.90;;;;;;4975338;28;20039;-63
2022/05/01 14:15:12;;;;;;;6.20;3.47;;;15.40;99.90;;;;;;4973969;28;20097;-62
2022/05/01 14:17:38;;;;;;;4.55;2.72;;;15.10;99.90;;;;;;4975362;28;20055;-63
2022/05/01 14:20:08;;;;;;;4.03;2.83;;;15.00;99.90;;;;;;4975139;28;20049;-62